Harrisonville, Illinois
Current Conditions -  °F | °C
As of 5:12 AM on Saturday 25 Oct 2014 (Local Time) from KCPS Reporting Station
Haze Haze  
Wind Chill: 54°   Ceiling: Unl
Heat Index: 54°   Visibility: 2mi
Dew Point: 53°   Wind: 0mph
Humidity: 97%   Direction: NA
Pressure: 29.99"   Gusts: NA
Location:  38.2838°N, 90.3044°W
Report Text: KCPS 251012Z AUTO 00000KT 2SM BR CLR 12/12 A2999 RMK AO2 VIS 1 1/4V4 T01220117
Loading
Personal Weather Stations






























Interactive Weather Map New forecast layout! Learn more

10-Day Weather Forecast

Advertisements
Track Severe Weather on mobile